createdAt,value
2023-05-07T00:00:02.103Z,100.00
2023-05-07T00:02:31.761Z,100.00
2023-05-07T00:05:01.441Z,100.00
2023-05-07T00:07:30.162Z,100.00
2023-05-07T00:09:59.119Z,100.00
2023-05-07T00:12:28.626Z,100.00
2023-05-07T00:14:58.443Z,100.00
2023-05-07T00:17:26.896Z,100.00
2023-05-07T00:19:55.336Z,100.00
2023-05-07T00:22:24.156Z,100.00
2023-05-07T00:24:52.569Z,100.00
2023-05-07T00:27:20.998Z,100.00
2023-05-07T00:29:49.764Z,100.00
2023-05-07T00:32:19.542Z,100.00
2023-05-07T00:34:48.289Z,100.00
2023-05-07T00:37:16.742Z,100.00
2023-05-07T00:39:45.286Z,100.00
2023-05-07T00:42:16.047Z,100.00
2023-05-07T00:44:44.929Z,100.00
2023-05-07T00:47:15.745Z,100.00
2023-05-07T00:49:47.613Z,100.00
2023-05-07T00:52:18.620Z,100.00
2023-05-07T00:54:47.645Z,100.00
2023-05-07T00:57:17.485Z,100.00
2023-05-07T00:59:45.959Z,100.00
2023-05-07T01:02:14.667Z,100.00
2023-05-07T01:04:43.306Z,100.00
2023-05-07T01:07:14.138Z,100.00
2023-05-07T01:09:42.778Z,100.00
2023-05-07T01:12:14.450Z,100.00
2023-05-07T01:14:43.322Z,100.00
2023-05-07T01:17:11.933Z,100.00
2023-05-07T01:19:41.075Z,100.00
2023-05-07T01:22:12.070Z,100.00
2023-05-07T01:24:52.922Z,100.00
2023-05-07T01:27:21.597Z,100.00
2023-05-07T01:29:54.591Z,100.00
2023-05-07T01:32:29.630Z,100.00
2023-05-07T01:35:00.662Z,100.00
2023-05-07T01:37:30.220Z,100.00
2023-05-07T01:40:00.391Z,100.00
2023-05-07T01:42:29.267Z,100.00
2023-05-07T01:44:58.084Z,100.00
2023-05-07T01:47:27.357Z,100.00
2023-05-07T01:49:57.067Z,100.00
2023-05-07T01:52:26.014Z,100.00
2023-05-07T01:54:54.449Z,100.00
2023-05-07T01:57:24.524Z,100.00
2023-05-07T01:59:53.130Z,100.00
2023-05-07T02:02:21.684Z,100.00
2023-05-07T02:04:50.434Z,100.00
2023-05-07T02:07:20.076Z,100.00
2023-05-07T02:09:48.639Z,100.00
2023-05-07T02:12:17.383Z,100.00
2023-05-07T02:14:47.544Z,100.00
2023-05-07T02:17:16.414Z,100.00
2023-05-07T02:19:44.961Z,100.00
2023-05-07T02:22:13.555Z,100.00
2023-05-07T02:24:41.986Z,100.00
2023-05-07T02:27:10.422Z,100.00
2023-05-07T02:29:40.270Z,100.00
2023-05-07T02:32:10.741Z,100.00
2023-05-07T02:34:39.408Z,100.00
2023-05-07T02:37:07.945Z,100.00
2023-05-07T02:39:38.110Z,100.00
2023-05-07T02:42:07.014Z,100.00
2023-05-07T02:44:36.608Z,100.00
2023-05-07T02:47:06.210Z,100.00
2023-05-07T02:49:36.561Z,100.00
2023-05-07T02:52:05.413Z,100.00
2023-05-07T02:54:34.014Z,100.00
2023-05-07T02:57:03.112Z,100.00
2023-05-07T02:59:31.772Z,100.00
2023-05-07T03:02:00.483Z,100.00
2023-05-07T03:04:29.564Z,100.00
2023-05-07T03:06:59.608Z,100.00
2023-05-07T03:09:28.247Z,100.00
2023-05-07T03:11:58.745Z,100.00
2023-05-07T03:14:27.217Z,100.00
2023-05-07T03:16:56.017Z,100.00
2023-05-07T03:19:24.539Z,100.00
2023-05-07T03:21:53.168Z,100.00
2023-05-07T03:24:23.441Z,100.00
2023-05-07T03:26:52.029Z,100.00
2023-05-07T03:29:21.121Z,100.00
2023-05-07T03:31:49.967Z,100.00
2023-05-07T03:34:23.142Z,100.00
2023-05-07T03:36:54.748Z,100.00
2023-05-07T03:39:26.098Z,100.00
2023-05-07T03:41:54.988Z,100.00
2023-05-07T03:44:24.198Z,100.00
2023-05-07T03:46:53.796Z,100.00
2023-05-07T03:49:22.463Z,100.00
2023-05-07T03:51:51.014Z,100.00
2023-05-07T03:54:20.053Z,100.00
2023-05-07T03:56:50.818Z,100.00
2023-05-07T03:59:19.736Z,100.00
2023-05-07T04:01:50.633Z,100.00
2023-05-07T04:04:22.296Z,100.00
2023-05-07T04:06:50.829Z,100.00
2023-05-07T04:09:19.914Z,100.00
2023-05-07T04:11:51.636Z,100.00
2023-05-07T04:14:22.586Z,100.00
2023-05-07T04:16:51.403Z,100.00
2023-05-07T04:19:19.868Z,100.00
2023-05-07T04:21:51.640Z,100.00
2023-05-07T04:24:20.346Z,100.00
2023-05-07T04:26:48.976Z,100.00
2023-05-07T04:29:19.143Z,100.00
2023-05-07T04:31:47.637Z,100.00
2023-05-07T04:34:16.580Z,100.00
2023-05-07T04:36:45.180Z,100.00
2023-05-07T04:39:16.199Z,100.00
2023-05-07T04:41:47.527Z,100.00
2023-05-07T04:44:16.407Z,100.00
2023-05-07T04:46:46.668Z,100.00
2023-05-07T04:49:15.010Z,100.00
2023-05-07T04:51:44.968Z,100.00
2023-05-07T04:54:14.043Z,100.00
2023-05-07T04:56:42.437Z,100.00
2023-05-07T04:59:11.840Z,100.00
2023-05-07T05:01:41.357Z,100.00
2023-05-07T05:04:12.691Z,100.00
2023-05-07T05:06:41.995Z,100.00
2023-05-07T05:09:12.859Z,100.00
2023-05-07T05:11:42.327Z,100.00
2023-05-07T05:14:10.980Z,100.00
2023-05-07T05:16:39.415Z,100.00
2023-05-07T05:19:08.083Z,100.00
2023-05-07T05:21:41.305Z,100.00
2023-05-07T05:24:11.740Z,100.00
2023-05-07T05:26:41.168Z,100.00
2023-05-07T05:29:09.921Z,100.00
2023-05-07T05:31:42.541Z,100.00
2023-05-07T05:34:11.797Z,100.00
2023-05-07T05:36:41.966Z,100.00
2023-05-07T05:39:10.502Z,100.00
2023-05-07T05:41:38.951Z,100.00
2023-05-07T05:44:07.531Z,100.00
2023-05-07T05:46:37.380Z,100.00
2023-05-07T05:49:05.934Z,100.00
2023-05-07T05:51:34.886Z,100.00
2023-05-07T05:54:05.618Z,100.00
2023-05-07T05:56:35.184Z,100.00
2023-05-07T05:59:04.220Z,100.00
2023-05-07T06:01:32.710Z,100.00
2023-05-07T06:04:03.952Z,100.00
2023-05-07T06:06:33.210Z,100.00
2023-05-07T06:09:04.299Z,100.00
2023-05-07T06:11:39.605Z,100.00
2023-05-07T06:14:08.540Z,100.00
2023-05-07T06:16:39.001Z,100.00
2023-05-07T06:19:08.965Z,100.00
2023-05-07T06:21:37.374Z,100.00
2023-05-07T06:24:07.641Z,100.00
2023-05-07T06:26:36.686Z,100.00
2023-05-07T06:29:05.761Z,100.00
2023-05-07T06:31:34.261Z,100.00
2023-05-07T06:34:06.165Z,100.00
2023-05-07T06:36:38.090Z,100.00
2023-05-07T06:39:17.056Z,100.00
2023-05-07T06:41:45.711Z,100.00
2023-05-07T06:44:24.190Z,100.00
2023-05-07T06:47:11.340Z,100.00
2023-05-07T06:49:42.101Z,100.00
2023-05-07T06:52:10.551Z,100.00
2023-05-07T06:54:40.516Z,100.00
2023-05-07T06:57:09.713Z,100.00
2023-05-07T06:59:38.212Z,100.00
2023-05-07T07:02:06.642Z,99.71
2023-05-07T07:04:35.398Z,97.83
2023-05-07T07:07:07.899Z,96.34
2023-05-07T07:09:37.680Z,97.69
2023-05-07T07:12:09.198Z,92.56
2023-05-07T07:14:39.789Z,92.89
2023-05-07T07:17:08.326Z,93.47
2023-05-07T07:19:37.362Z,89.34
2023-05-07T07:22:05.997Z,88.54
2023-05-07T07:24:35.283Z,89.48
2023-05-07T07:27:07.053Z,90.12
2023-05-07T07:29:38.122Z,87.82
2023-05-07T07:32:07.039Z,82.90
2023-05-07T07:34:35.425Z,83.27
2023-05-07T07:37:07.021Z,82.10
2023-05-07T07:39:38.526Z,76.90
2023-05-07T07:42:07.982Z,76.35
2023-05-07T07:44:37.900Z,77.81
2023-05-07T07:47:09.953Z,75.86
2023-05-07T07:49:39.009Z,74.39
2023-05-07T07:52:09.027Z,75.47
2023-05-07T07:54:39.105Z,74.77
2023-05-07T07:57:09.193Z,71.82
2023-05-07T07:59:40.488Z,72.44
2023-05-07T08:02:09.913Z,72.13
2023-05-07T08:04:39.140Z,73.02
2023-05-07T08:07:09.275Z,73.79
2023-05-07T08:09:41.948Z,70.48
2023-05-07T08:12:11.607Z,67.17
2023-05-07T08:14:42.773Z,65.61
2023-05-07T08:17:11.676Z,63.25
2023-05-07T08:19:40.455Z,63.08
2023-05-07T08:22:13.262Z,59.13
2023-05-07T08:24:44.123Z,59.29
2023-05-07T08:27:13.284Z,59.59
2023-05-07T08:29:48.332Z,58.28
2023-05-07T08:32:17.753Z,56.58
2023-05-07T08:34:46.249Z,56.10
2023-05-07T08:37:14.899Z,56.75
2023-05-07T08:39:43.463Z,54.79
2023-05-07T08:42:19.757Z,53.80
2023-05-07T08:44:54.006Z,50.50
2023-05-07T08:47:27.623Z,50.43
2023-05-07T08:49:56.718Z,49.15
2023-05-07T08:52:26.137Z,48.48
2023-05-07T08:54:54.666Z,49.18
2023-05-07T08:57:25.302Z,46.36
2023-05-07T08:59:55.813Z,47.46
2023-05-07T09:02:25.006Z,45.82
2023-05-07T09:04:54.540Z,44.40
2023-05-07T09:07:24.357Z,41.47
2023-05-07T09:09:52.870Z,42.88
2023-05-07T09:12:21.853Z,39.66
2023-05-07T09:14:50.930Z,40.60
2023-05-07T09:17:21.429Z,38.99
2023-05-07T09:19:50.090Z,38.38
2023-05-07T09:22:19.267Z,37.69
2023-05-07T09:25:09.759Z,37.09
2023-05-07T09:27:39.990Z,36.92
2023-05-07T09:30:10.024Z,38.81
2023-05-07T09:32:40.772Z,37.12
2023-05-07T09:35:18.059Z,37.80
2023-05-07T09:37:50.357Z,39.60
2023-05-07T09:40:23.749Z,39.28
2023-05-07T09:42:53.857Z,39.95
2023-05-07T09:45:27.179Z,39.32
2023-05-07T09:47:59.064Z,37.22
2023-05-07T09:50:31.427Z,38.72
2023-05-07T09:53:01.887Z,38.91
2023-05-07T09:55:30.776Z,38.42
2023-05-07T09:58:00.736Z,40.24
2023-05-07T10:00:31.177Z,39.74
2023-05-07T10:03:11.899Z,39.57
2023-05-07T10:05:52.559Z,40.33
2023-05-07T10:08:22.715Z,41.90
2023-05-07T10:10:54.315Z,42.19
2023-05-07T10:13:26.514Z,43.79
2023-05-07T10:15:58.090Z,44.84
2023-05-07T10:18:34.049Z,45.33
2023-05-07T10:21:10.672Z,45.93
2023-05-07T10:23:42.193Z,47.29
2023-05-07T10:26:12.154Z,47.82
2023-05-07T10:28:43.870Z,48.66
2023-05-07T10:31:34.257Z,50.36
2023-05-07T10:34:09.980Z,51.05
2023-05-07T10:36:40.116Z,50.23
2023-05-07T10:39:09.965Z,49.58
2023-05-07T10:41:50.425Z,50.47
2023-05-07T10:44:28.747Z,50.30
2023-05-07T10:47:09.939Z,50.09
2023-05-07T10:50:18.186Z,48.74
2023-05-07T10:53:28.576Z,48.77
2023-05-07T10:56:32.288Z,49.13
2023-05-07T10:59:44.192Z,48.57
2023-05-07T11:02:24.649Z,48.80
2023-05-07T11:05:22.066Z,49.86
2023-05-07T11:07:59.430Z,52.19
2023-05-07T11:10:51.050Z,56.71
2023-05-07T11:13:44.583Z,59.03
2023-05-07T11:16:22.210Z,62.62
2023-05-07T11:19:09.562Z,68.97
2023-05-07T11:21:44.153Z,73.68
2023-05-07T11:24:44.741Z,73.96
2023-05-07T11:27:15.382Z,77.51
2023-05-07T11:29:49.022Z,80.94
2023-05-07T11:32:25.149Z,79.26
2023-05-07T11:34:55.958Z,77.16
2023-05-07T11:37:25.836Z,75.43
2023-05-07T11:40:07.497Z,77.40
2023-05-07T11:42:38.351Z,79.08
2023-05-07T11:45:08.198Z,76.05
2023-05-07T11:47:36.790Z,78.48
2023-05-07T11:50:08.349Z,77.30
2023-05-07T11:52:40.597Z,76.28
2023-05-07T11:55:11.153Z,72.99
2023-05-07T11:57:40.110Z,70.46
2023-05-07T12:00:10.319Z,69.94
2023-05-07T12:02:48.439Z,70.63
2023-05-07T12:05:17.728Z,69.97
2023-05-07T12:07:46.237Z,70.36
2023-05-07T12:10:16.234Z,71.20
2023-05-07T12:12:48.355Z,72.00
2023-05-07T12:15:18.969Z,72.75
2023-05-07T12:17:48.050Z,73.25
2023-05-07T12:20:16.537Z,73.58
2023-05-07T12:22:45.144Z,72.74
2023-05-07T12:25:19.637Z,71.05
2023-05-07T12:27:53.937Z,72.20
2023-05-07T12:30:22.402Z,70.44
2023-05-07T12:32:55.205Z,69.39
2023-05-07T12:35:49.882Z,69.96
2023-05-07T12:38:22.369Z,68.22
2023-05-07T12:40:52.728Z,68.35
2023-05-07T12:43:24.692Z,66.56
2023-05-07T12:45:55.510Z,64.78
2023-05-07T12:48:27.815Z,63.41
2023-05-07T12:50:57.331Z,61.42
2023-05-07T12:53:30.136Z,60.22
2023-05-07T12:56:00.519Z,58.57
2023-05-07T12:58:31.861Z,58.88
2023-05-07T13:01:01.858Z,57.30
2023-05-07T13:03:34.524Z,58.99
2023-05-07T13:06:05.347Z,59.06
2023-05-07T13:08:35.463Z,58.34
2023-05-07T13:11:05.039Z,58.47
2023-05-07T13:13:36.490Z,59.26
2023-05-07T13:16:08.665Z,60.49
2023-05-07T13:18:38.322Z,60.87
2023-05-07T13:21:07.007Z,61.54
2023-05-07T13:23:36.052Z,60.58
2023-05-07T13:26:24.787Z,60.82
2023-05-07T13:28:56.062Z,59.08
2023-05-07T13:31:24.618Z,61.61
2023-05-07T13:33:53.595Z,60.80
2023-05-07T13:36:29.416Z,61.72
2023-05-07T13:39:00.156Z,61.44
2023-05-07T13:41:28.832Z,61.38
2023-05-07T13:43:59.233Z,61.54
2023-05-07T13:46:27.731Z,61.45
2023-05-07T13:48:57.167Z,62.18
2023-05-07T13:51:26.710Z,62.84
2023-05-07T13:53:55.313Z,62.19
2023-05-07T13:56:24.257Z,63.26
2023-05-07T13:59:00.809Z,63.34
2023-05-07T14:01:31.006Z,64.15
2023-05-07T14:04:00.431Z,64.35
2023-05-07T14:06:28.976Z,65.76
2023-05-07T14:08:58.968Z,67.17
2023-05-07T14:11:28.737Z,66.22
2023-05-07T14:13:57.792Z,64.45
2023-05-07T14:16:26.260Z,63.94
2023-05-07T14:18:58.156Z,62.72
2023-05-07T14:21:27.249Z,63.42
2023-05-07T14:23:57.536Z,65.86
2023-05-07T14:26:27.845Z,65.51
2023-05-07T14:28:58.227Z,67.07
2023-05-07T14:31:30.695Z,68.71
2023-05-07T14:34:00.570Z,66.81
2023-05-07T14:36:28.912Z,68.10
2023-05-07T14:38:59.943Z,67.85
2023-05-07T14:41:28.367Z,67.80
2023-05-07T14:44:00.069Z,69.20
2023-05-07T14:46:28.477Z,69.34
2023-05-07T14:48:56.958Z,70.44
2023-05-07T14:51:26.799Z,70.19
2023-05-07T14:53:56.308Z,70.20
2023-05-07T14:56:28.107Z,70.60
2023-05-07T14:58:56.463Z,70.70
2023-05-07T15:01:24.901Z,70.04
2023-05-07T15:03:53.502Z,70.56
2023-05-07T15:06:32.657Z,70.53
2023-05-07T15:09:01.101Z,70.15
2023-05-07T15:11:29.492Z,70.32
2023-05-07T15:13:58.223Z,70.17
2023-05-07T15:16:27.732Z,71.68
2023-05-07T15:18:57.144Z,71.97
2023-05-07T15:21:27.684Z,71.90
2023-05-07T15:23:56.305Z,69.54
2023-05-07T15:26:26.473Z,68.90
2023-05-07T15:28:57.599Z,69.20
2023-05-07T15:31:26.718Z,68.99
2023-05-07T15:33:55.344Z,70.18
2023-05-07T15:36:23.768Z,71.78
2023-05-07T15:41:23.928Z,73.10
2023-05-07T15:43:54.282Z,73.44
2023-05-07T15:46:25.270Z,74.08
2023-05-07T15:48:54.553Z,74.63
2023-05-07T15:51:26.836Z,74.18
2023-05-07T15:53:56.549Z,73.90
2023-05-07T15:56:25.197Z,73.93
2023-05-07T15:58:54.286Z,73.73
2023-05-07T16:01:24.664Z,74.47
2023-05-07T16:03:58.262Z,76.43
2023-05-07T16:06:27.785Z,75.43
2023-05-07T16:08:57.483Z,76.23
2023-05-07T16:11:25.916Z,77.05
2023-05-07T16:13:57.944Z,77.04
2023-05-07T16:16:30.315Z,77.99
2023-05-07T16:18:58.806Z,78.44
2023-05-07T16:21:27.366Z,79.35
2023-05-07T16:23:57.054Z,81.61
2023-05-07T16:26:29.912Z,82.07
2023-05-07T16:28:58.737Z,83.56
2023-05-07T16:31:27.081Z,83.86
2023-05-07T16:33:55.632Z,84.48
2023-05-07T16:36:24.006Z,85.81
2023-05-07T16:39:00.262Z,86.39
2023-05-07T16:41:28.588Z,86.49
2023-05-07T16:43:57.697Z,86.32
2023-05-07T16:46:26.338Z,87.56
2023-05-07T16:48:54.938Z,88.38
2023-05-07T16:51:24.460Z,88.83
2023-05-07T16:53:52.947Z,89.68
2023-05-07T16:56:22.816Z,89.18
2023-05-07T16:58:51.221Z,89.51
2023-05-07T17:01:19.799Z,88.26
2023-05-07T17:03:48.613Z,88.85
2023-05-07T17:06:17.515Z,89.05
2023-05-07T17:08:45.986Z,89.46
2023-05-07T17:11:14.337Z,90.26
2023-05-07T17:13:47.479Z,90.18
2023-05-07T17:16:21.270Z,90.71
2023-05-07T17:18:50.216Z,91.33
2023-05-07T17:21:18.606Z,91.52
2023-05-07T17:23:50.183Z,91.88
2023-05-07T17:26:18.626Z,92.11
2023-05-07T17:28:48.833Z,92.40
2023-05-07T17:31:17.387Z,93.81
2023-05-07T17:33:45.803Z,93.45
2023-05-07T17:36:14.743Z,94.72
2023-05-07T17:38:43.415Z,95.23
2023-05-07T17:41:11.924Z,95.97
2023-05-07T17:43:40.662Z,96.97
2023-05-07T17:46:10.740Z,98.27
2023-05-07T17:48:47.813Z,97.02
2023-05-07T17:51:16.621Z,97.20
2023-05-07T17:53:44.999Z,98.21
2023-05-07T17:56:13.650Z,98.41
2023-05-07T17:58:58.056Z,99.07
2023-05-07T18:01:28.729Z,98.89
2023-05-07T18:03:57.588Z,98.16
2023-05-07T18:06:26.181Z,98.21
2023-05-07T18:08:54.982Z,99.25
2023-05-07T18:11:24.425Z,99.43
2023-05-07T18:13:53.096Z,99.89
2023-05-07T18:16:21.549Z,99.56
2023-05-07T18:18:51.376Z,99.48
2023-05-07T18:21:28.672Z,99.41
2023-05-07T18:23:57.048Z,99.85
2023-05-07T18:26:26.259Z,100.00
2023-05-07T18:28:54.666Z,100.00
2023-05-07T18:31:25.407Z,100.00
2023-05-07T18:33:56.109Z,100.00
2023-05-07T18:36:26.808Z,100.00
2023-05-07T18:38:55.271Z,100.00
2023-05-07T18:41:23.876Z,100.00
2023-05-07T18:44:01.434Z,100.00
2023-05-07T18:46:30.233Z,100.00
2023-05-07T18:49:00.603Z,100.00
2023-05-07T18:51:29.044Z,100.00
2023-05-07T18:53:57.406Z,100.00
2023-05-07T18:56:25.856Z,100.00
2023-05-07T18:58:54.284Z,100.00
2023-05-07T19:01:22.737Z,100.00
2023-05-07T19:03:51.268Z,100.00
2023-05-07T19:06:22.205Z,100.00
2023-05-07T19:08:50.555Z,100.00
2023-05-07T19:11:19.042Z,100.00
2023-05-07T19:13:47.383Z,100.00
2023-05-07T19:16:16.009Z,100.00
2023-05-07T19:18:44.436Z,100.00
2023-05-07T19:21:12.789Z,100.00
2023-05-07T19:23:42.819Z,100.00
2023-05-07T19:26:12.251Z,100.00
2023-05-07T19:28:45.273Z,100.00
2023-05-07T19:31:20.132Z,100.00
2023-05-07T19:33:50.061Z,100.00
2023-05-07T19:36:18.391Z,100.00
2023-05-07T19:38:49.855Z,100.00
2023-05-07T19:41:18.200Z,100.00
2023-05-07T19:43:46.566Z,100.00
2023-05-07T19:46:16.475Z,100.00
2023-05-07T19:48:45.586Z,100.00
2023-05-07T19:51:14.213Z,100.00
2023-05-07T19:53:42.598Z,100.00
2023-05-07T19:56:13.212Z,100.00
2023-05-07T19:58:41.693Z,100.00
2023-05-07T20:01:10.294Z,100.00
2023-05-07T20:03:39.004Z,100.00
2023-05-07T20:06:07.513Z,100.00
2023-05-07T20:08:35.995Z,100.00
2023-05-07T20:11:04.401Z,100.00
2023-05-07T20:13:34.217Z,100.00
2023-05-07T20:16:03.307Z,100.00
2023-05-07T20:18:32.053Z,100.00
2023-05-07T20:21:00.431Z,100.00
2023-05-07T20:23:28.751Z,100.00
2023-05-07T20:25:58.310Z,100.00
2023-05-07T20:28:27.267Z,100.00
2023-05-07T20:30:57.021Z,100.00
2023-05-07T20:33:26.747Z,100.00
2023-05-07T20:35:55.414Z,100.00
2023-05-07T20:38:23.752Z,100.00
2023-05-07T20:40:52.086Z,100.00
2023-05-07T20:43:20.602Z,100.00
2023-05-07T20:45:49.329Z,100.00
2023-05-07T20:48:19.122Z,100.00
2023-05-07T20:50:47.476Z,100.00
2023-05-07T20:53:15.887Z,100.00
2023-05-07T20:55:44.221Z,100.00
2023-05-07T20:58:12.651Z,100.00
2023-05-07T21:00:41.148Z,100.00
2023-05-07T21:03:10.084Z,100.00
2023-05-07T21:05:39.773Z,100.00
2023-05-07T21:08:08.316Z,100.00
2023-05-07T21:10:36.658Z,100.00
2023-05-07T21:13:06.144Z,100.00
2023-05-07T21:15:34.762Z,100.00
2023-05-07T21:18:03.109Z,100.00
2023-05-07T21:20:31.465Z,100.00
2023-05-07T21:23:01.252Z,100.00
2023-05-07T21:25:29.636Z,100.00
2023-05-07T21:27:58.301Z,100.00
2023-05-07T21:30:26.952Z,100.00
2023-05-07T21:32:56.280Z,100.00
2023-05-07T21:35:24.644Z,100.00
2023-05-07T21:37:53.031Z,100.00
2023-05-07T21:40:22.997Z,100.00
2023-05-07T21:42:51.389Z,100.00
2023-05-07T21:45:20.233Z,100.00
2023-05-07T21:47:48.636Z,100.00
2023-05-07T21:50:17.262Z,100.00
2023-05-07T21:52:47.445Z,100.00
2023-05-07T21:55:16.188Z,100.00
2023-05-07T21:57:57.486Z,100.00
2023-05-07T22:00:33.385Z,100.00
2023-05-07T22:03:01.840Z,100.00
2023-05-07T22:05:30.408Z,100.00
2023-05-07T22:07:59.094Z,100.00
2023-05-07T22:10:27.755Z,100.00
2023-05-07T22:12:57.624Z,100.00
2023-05-07T22:15:26.075Z,100.00
2023-05-07T22:17:54.660Z,100.00
2023-05-07T22:20:23.215Z,100.00
2023-05-07T22:22:53.179Z,100.00
2023-05-07T22:25:22.146Z,100.00
2023-05-07T22:27:51.633Z,100.00
2023-05-07T22:30:21.350Z,100.00
2023-05-07T22:32:49.847Z,100.00
2023-05-07T22:35:18.238Z,100.00
2023-05-07T22:37:46.947Z,100.00
2023-05-07T22:40:15.531Z,100.00
2023-05-07T22:42:44.611Z,100.00
2023-05-07T22:45:13.002Z,100.00
2023-05-07T22:47:42.778Z,100.00
2023-05-07T22:50:12.388Z,100.00
2023-05-07T22:52:41.020Z,100.00
2023-05-07T22:55:09.954Z,100.00
2023-05-07T22:57:38.359Z,100.00
2023-05-07T23:00:07.804Z,100.00
2023-05-07T23:02:36.553Z,100.00
2023-05-07T23:05:07.923Z,100.00
2023-05-07T23:07:36.480Z,100.00
2023-05-07T23:10:05.845Z,100.00
2023-05-07T23:12:34.488Z,100.00
2023-05-07T23:15:02.894Z,100.00
2023-05-07T23:17:32.510Z,100.00
2023-05-07T23:20:01.019Z,100.00
2023-05-07T23:22:31.510Z,100.00
2023-05-07T23:25:00.247Z,100.00
2023-05-07T23:27:28.587Z,100.00
2023-05-07T23:29:57.084Z,100.00
2023-05-07T23:32:25.435Z,100.00
2023-05-07T23:34:55.675Z,100.00
2023-05-07T23:37:24.151Z,100.00
2023-05-07T23:39:56.016Z,100.00
2023-05-07T23:42:24.474Z,100.00
2023-05-07T23:44:52.879Z,100.00
2023-05-07T23:47:21.479Z,100.00
2023-05-07T23:49:49.878Z,100.00
2023-05-07T23:52:18.444Z,100.00
2023-05-07T23:54:46.947Z,100.00
2023-05-07T23:57:16.725Z,100.00
2023-05-07T23:59:45.563Z,100.00
